sensor_id;sensor_type;location;lat;lon;timestamp;P1;P2;P0
26185;PMS7003;20067;48.764;9.176;2023-01-10T00:00:49;12.00;12.00;6.50
26185;PMS7003;20067;48.764;9.176;2023-01-10T00:03:16;18.50;18.50;9.50
26185;PMS7003;20067;48.764;9.176;2023-01-10T00:05:42;12.00;12.00;5.00
26185;PMS7003;20067;48.764;9.176;2023-01-10T00:08:07;7.00;7.00;3.00
26185;PMS7003;20067;48.764;9.176;2023-01-10T00:10:34;13.00;12.00;5.00
26185;PMS7003;20067;48.764;9.176;2023-01-10T00:13:01;8.75;8.75;3.00
26185;PMS7003;20067;48.764;9.176;2023-01-10T00:15:46;19.00;19.00;9.00
26185;PMS7003;20067;48.764;9.176;2023-01-10T00:18:11;11.25;11.25;5.00
26185;PMS7003;20067;48.764;9.176;2023-01-10T00:20:37;12.25;12.25;5.00
26185;PMS7003;20067;48.764;9.176;2023-01-10T00:23:03;15.50;15.50;10.50
26185;PMS7003;20067;48.764;9.176;2023-01-10T00:25:29;10.00;10.00;7.00
26185;PMS7003;20067;48.764;9.176;2023-01-10T00:27:55;10.00;10.00;6.00
26185;PMS7003;20067;48.764;9.176;2023-01-10T00:30:28;11.00;11.00;7.25
26185;PMS7003;20067;48.764;9.176;2023-01-10T00:32:54;8.00;8.00;4.00
26185;PMS7003;20067;48.764;9.176;2023-01-10T00:35:21;10.00;10.00;5.00
26185;PMS7003;20067;48.764;9.176;2023-01-10T00:37:47;10.00;10.00;6.50
26185;PMS7003;20067;48.764;9.176;2023-01-10T00:40:12;8.00;8.00;5.00
26185;PMS7003;20067;48.764;9.176;2023-01-10T00:42:38;9.50;9.50;5.50
26185;PMS7003;20067;48.764;9.176;2023-01-10T00:45:22;10.00;10.00;6.50
26185;PMS7003;20067;48.764;9.176;2023-01-10T00:47:49;14.00;12.00;7.50
26185;PMS7003;20067;48.764;9.176;2023-01-10T00:50:16;10.00;10.00;7.00
26185;PMS7003;20067;48.764;9.176;2023-01-10T00:52:42;13.00;13.00;8.00
26185;PMS7003;20067;48.764;9.176;2023-01-10T00:55:07;12.00;12.00;8.25
26185;PMS7003;20067;48.764;9.176;2023-01-10T00:57:33;12.00;12.00;8.75
26185;PMS7003;20067;48.764;9.176;2023-01-10T00:59:59;14.00;12.50;8.75
26185;PMS7003;20067;48.764;9.176;2023-01-10T01:02:24;12.00;12.00;7.00
26185;PMS7003;20067;48.764;9.176;2023-01-10T01:04:50;16.25;16.25;11.00
26185;PMS7003;20067;48.764;9.176;2023-01-10T01:07:15;14.25;14.25;10.00
26185;PMS7003;20067;48.764;9.176;2023-01-10T01:09:41;16.50;14.00;10.00
26185;PMS7003;20067;48.764;9.176;2023-01-10T01:12:25;30.50;28.00;21.50
26185;PMS7003;20067;48.764;9.176;2023-01-10T01:14:51;19.50;19.50;15.00
26185;PMS7003;20067;48.764;9.176;2023-01-10T01:17:17;19.50;19.00;15.25
26185;PMS7003;20067;48.764;9.176;2023-01-10T01:19:43;18.50;18.50;14.00
26185;PMS7003;20067;48.764;9.176;2023-01-10T01:22:08;17.00;17.00;12.00
26185;PMS7003;20067;48.764;9.176;2023-01-10T01:24:34;24.00;24.00;18.00
26185;PMS7003;20067;48.764;9.176;2023-01-10T01:27:00;20.50;20.50;15.00
26185;PMS7003;20067;48.764;9.176;2023-01-10T01:29:25;14.00;14.00;9.00
26185;PMS7003;20067;48.764;9.176;2023-01-10T01:31:51;13.00;12.00;7.25
26185;PMS7003;20067;48.764;9.176;2023-01-10T01:34:16;12.00;12.00;8.00
26185;PMS7003;20067;48.764;9.176;2023-01-10T01:36:42;14.00;14.00;9.25
26185;PMS7003;20067;48.764;9.176;2023-01-10T01:39:08;11.00;11.00;7.50
26185;PMS7003;20067;48.764;9.176;2023-01-10T01:41:33;12.00;12.00;7.25
26185;PMS7003;20067;48.764;9.176;2023-01-10T01:44:18;11.50;11.50;7.75
26185;PMS7003;20067;48.764;9.176;2023-01-10T01:46:44;11.50;11.50;7.50
26185;PMS7003;20067;48.764;9.176;2023-01-10T01:49:29;10.00;10.00;7.00
26185;PMS7003;20067;48.764;9.176;2023-01-10T01:52:00;12.50;12.50;7.75
26185;PMS7003;20067;48.764;9.176;2023-01-10T01:54:29;9.25;9.25;5.00
26185;PMS7003;20067;48.764;9.176;2023-01-10T01:57:04;12.50;12.50;8.50
26185;PMS7003;20067;48.764;9.176;2023-01-10T01:59:44;10.50;10.50;7.25
26185;PMS7003;20067;48.764;9.176;2023-01-10T02:02:15;12.00;12.00;8.00
26185;PMS7003;20067;48.764;9.176;2023-01-10T02:04:47;13.50;12.00;8.00
26185;PMS7003;20067;48.764;9.176;2023-01-10T02:07:19;13.00;13.00;8.75
26185;PMS7003;20067;48.764;9.176;2023-01-10T02:09:49;15.25;15.25;11.50
26185;PMS7003;20067;48.764;9.176;2023-01-10T02:12:22;12.50;12.50;8.50
26185;PMS7003;20067;48.764;9.176;2023-01-10T02:14:50;12.00;12.00;7.75
26185;PMS7003;20067;48.764;9.176;2023-01-10T02:17:17;15.00;15.00;11.50
26185;PMS7003;20067;48.764;9.176;2023-01-10T02:22:31;10.00;10.00;7.00
26185;PMS7003;20067;48.764;9.176;2023-01-10T02:41:40;19.00;19.00;13.75
26185;PMS7003;20067;48.764;9.176;2023-01-10T02:46:40;15.00;14.75;11.50
26185;PMS7003;20067;48.764;9.176;2023-01-10T02:49:07;11.00;11.00;7.50
26185;PMS7003;20067;48.764;9.176;2023-01-10T02:51:33;17.00;17.00;12.00
26185;PMS7003;20067;48.764;9.176;2023-01-10T03:10:36;12.00;12.00;8.75
26185;PMS7003;20067;48.764;9.176;2023-01-10T03:15:42;14.00;14.00;9.00
26185;PMS7003;20067;48.764;9.176;2023-01-10T03:18:13;12.50;12.50;9.00
26185;PMS7003;20067;48.764;9.176;2023-01-10T03:20:57;14.00;14.00;10.00
26185;PMS7003;20067;48.764;9.176;2023-01-10T03:23:26;14.50;14.50;10.00
26185;PMS7003;20067;48.764;9.176;2023-01-10T03:25:52;15.75;15.75;10.00
26185;PMS7003;20067;48.764;9.176;2023-01-10T03:31:14;13.00;13.00;8.50
26185;PMS7003;20067;48.764;9.176;2023-01-10T03:33:45;16.25;15.25;10.00
26185;PMS7003;20067;48.764;9.176;2023-01-10T03:36:33;14.00;14.00;8.75
26185;PMS7003;20067;48.764;9.176;2023-01-10T03:39:11;15.50;12.00;7.25
26185;PMS7003;20067;48.764;9.176;2023-01-10T03:52:36;13.00;13.00;8.75
26185;PMS7003;20067;48.764;9.176;2023-01-10T03:55:05;13.00;13.00;8.00
26185;PMS7003;20067;48.764;9.176;2023-01-10T03:57:34;12.00;11.00;7.00
26185;PMS7003;20067;48.764;9.176;2023-01-10T03:59:59;12.00;10.00;5.50
26185;PMS7003;20067;48.764;9.176;2023-01-10T04:02:26;11.50;11.50;5.00
26185;PMS7003;20067;48.764;9.176;2023-01-10T04:04:53;12.00;12.00;7.25
26185;PMS7003;20067;48.764;9.176;2023-01-10T04:07:19;10.00;10.00;7.00
26185;PMS7003;20067;48.764;9.176;2023-01-10T04:09:44;11.00;10.00;7.00
26185;PMS7003;20067;48.764;9.176;2023-01-10T04:12:10;12.00;12.00;7.25
26185;PMS7003;20067;48.764;9.176;2023-01-10T04:14:35;17.00;17.00;11.00
26185;PMS7003;20067;48.764;9.176;2023-01-10T04:17:01;12.00;12.00;7.25
26185;PMS7003;20067;48.764;9.176;2023-01-10T04:19:27;15.00;14.50;10.50
26185;PMS7003;20067;48.764;9.176;2023-01-10T04:21:53;10.00;10.00;7.00
26185;PMS7003;20067;48.764;9.176;2023-01-10T04:24:19;12.00;12.00;8.00
26185;PMS7003;20067;48.764;9.176;2023-01-10T04:26:44;13.00;10.00;7.00
26185;PMS7003;20067;48.764;9.176;2023-01-10T04:29:10;12.00;12.00;7.00
26185;PMS7003;20067;48.764;9.176;2023-01-10T04:31:36;15.50;12.00;8.75
26185;PMS7003;20067;48.764;9.176;2023-01-10T04:34:01;10.00;10.00;7.00
26185;PMS7003;20067;48.764;9.176;2023-01-10T04:36:27;12.00;12.00;7.50
26185;PMS7003;20067;48.764;9.176;2023-01-10T04:38:53;15.75;14.00;9.50
26185;PMS7003;20067;48.764;9.176;2023-01-10T04:41:18;14.00;11.50;7.00
26185;PMS7003;20067;48.764;9.176;2023-01-10T04:43:44;17.25;17.25;11.00
26185;PMS7003;20067;48.764;9.176;2023-01-10T04:46:09;15.50;14.00;8.75
26185;PMS7003;20067;48.764;9.176;2023-01-10T04:48:35;11.50;11.50;6.50
26185;PMS7003;20067;48.764;9.176;2023-01-10T04:51:01;11.00;10.00;7.00
26185;PMS7003;20067;48.764;9.176;2023-01-10T04:53:27;14.00;14.00;7.50
26185;PMS7003;20067;48.764;9.176;2023-01-10T04:55:53;10.00;10.00;5.00
26185;PMS7003;20067;48.764;9.176;2023-01-10T04:58:18;10.00;10.00;6.50
26185;PMS7003;20067;48.764;9.176;2023-01-10T05:00:44;12.00;12.00;7.00
26185;PMS7003;20067;48.764;9.176;2023-01-10T05:03:10;12.00;10.00;7.00
26185;PMS7003;20067;48.764;9.176;2023-01-10T05:05:35;13.50;13.50;8.75
26185;PMS7003;20067;48.764;9.176;2023-01-10T05:08:01;13.50;12.00;7.00
26185;PMS7003;20067;48.764;9.176;2023-01-10T05:10:26;11.00;11.00;7.00
26185;PMS7003;20067;48.764;9.176;2023-01-10T05:12:52;15.00;12.00;7.00
26185;PMS7003;20067;48.764;9.176;2023-01-10T05:15:18;10.50;10.50;5.00
26185;PMS7003;20067;48.764;9.176;2023-01-10T05:17:45;14.25;14.25;9.00
26185;PMS7003;20067;48.764;9.176;2023-01-10T05:20:11;14.00;14.00;7.00
26185;PMS7003;20067;48.764;9.176;2023-01-10T05:22:37;15.00;13.50;8.00
26185;PMS7003;20067;48.764;9.176;2023-01-10T05:25:03;14.25;14.25;7.00
26185;PMS7003;20067;48.764;9.176;2023-01-10T05:27:29;11.00;11.00;3.00
26185;PMS7003;20067;48.764;9.176;2023-01-10T05:29:55;12.75;12.00;5.00
26185;PMS7003;20067;48.764;9.176;2023-01-10T05:32:20;14.75;14.75;5.50
26185;PMS7003;20067;48.764;9.176;2023-01-10T05:34:47;12.00;12.00;5.00
26185;PMS7003;20067;48.764;9.176;2023-01-10T05:37:12;11.75;11.75;5.50
26185;PMS7003;20067;48.764;9.176;2023-01-10T05:39:38;12.00;10.50;3.00
26185;PMS7003;20067;48.764;9.176;2023-01-10T05:42:05;12.00;12.00;6.50
26185;PMS7003;20067;48.764;9.176;2023-01-10T05:44:30;11.75;10.00;5.00
26185;PMS7003;20067;48.764;9.176;2023-01-10T05:46:56;9.25;9.25;5.00
26185;PMS7003;20067;48.764;9.176;2023-01-10T05:49:22;10.75;9.50;3.00
26185;PMS7003;20067;48.764;9.176;2023-01-10T05:51:47;8.25;8.25;1.50
26185;PMS7003;20067;48.764;9.176;2023-01-10T05:54:13;11.00;9.25;5.00
26185;PMS7003;20067;48.764;9.176;2023-01-10T05:56:39;14.00;14.00;8.75
26185;PMS7003;20067;48.764;9.176;2023-01-10T05:59:04;15.25;12.50;7.25
26185;PMS7003;20067;48.764;9.176;2023-01-10T06:01:30;10.25;9.25;5.00
26185;PMS7003;20067;48.764;9.176;2023-01-10T06:03:55;14.00;10.00;7.00
26185;PMS7003;20067;48.764;9.176;2023-01-10T06:06:21;7.00;7.00;3.00
26185;PMS7003;20067;48.764;9.176;2023-01-10T06:08:47;11.50;10.00;6.50
26185;PMS7003;20067;48.764;9.176;2023-01-10T06:11:12;11.00;11.00;7.00
26185;PMS7003;20067;48.764;9.176;2023-01-10T06:13:38;9.00;9.00;4.50
26185;PMS7003;20067;48.764;9.176;2023-01-10T06:16:04;12.50;10.50;5.00
26185;PMS7003;20067;48.764;9.176;2023-01-10T06:18:30;9.00;9.00;3.50
26185;PMS7003;20067;48.764;9.176;2023-01-10T06:20:55;10.25;8.75;3.00
26185;PMS7003;20067;48.764;9.176;2023-01-10T06:23:21;9.25;8.75;1.50
26185;PMS7003;20067;48.764;9.176;2023-01-10T06:25:46;10.00;10.00;4.00
26185;PMS7003;20067;48.764;9.176;2023-01-10T06:28:13;10.75;9.00;3.00
26185;PMS7003;20067;48.764;9.176;2023-01-10T06:30:40;7.00;7.00;2.50
26185;PMS7003;20067;48.764;9.176;2023-01-10T06:33:07;7.00;6.50;2.00
26185;PMS7003;20067;48.764;9.176;2023-01-10T06:35:34;7.00;5.00;1.00
26185;PMS7003;20067;48.764;9.176;2023-01-10T06:38:00;7.25;7.00;1.00
26185;PMS7003;20067;48.764;9.176;2023-01-10T06:40:26;6.00;6.00;1.50
26185;PMS7003;20067;48.764;9.176;2023-01-10T06:42:52;8.75;8.75;3.00
26185;PMS7003;20067;48.764;9.176;2023-01-10T06:45:18;7.00;7.00;1.50
26185;PMS7003;20067;48.764;9.176;2023-01-10T06:47:44;9.25;9.25;5.00
26185;PMS7003;20067;48.764;9.176;2023-01-10T06:50:10;8.50;7.00;2.00
26185;PMS7003;20067;48.764;9.176;2023-01-10T06:52:37;7.00;7.00;1.00
26185;PMS7003;20067;48.764;9.176;2023-01-10T06:55:03;7.00;7.00;1.00
26185;PMS7003;20067;48.764;9.176;2023-01-10T06:57:29;9.25;9.00;3.50
26185;PMS7003;20067;48.764;9.176;2023-01-10T06:59:58;9.00;8.75;3.00
26185;PMS7003;20067;48.764;9.176;2023-01-10T07:02:23;7.25;6.00;1.50
26185;PMS7003;20067;48.764;9.176;2023-01-10T07:04:49;8.50;8.00;5.00
26185;PMS7003;20067;48.764;9.176;2023-01-10T07:07:14;7.75;7.00;1.00
26185;PMS7003;20067;48.764;9.176;2023-01-10T07:09:40;10.50;10.50;5.00
26185;PMS7003;20067;48.764;9.176;2023-01-10T07:12:05;7.00;7.00;2.50
26185;PMS7003;20067;48.764;9.176;2023-01-10T07:14:31;10.00;10.00;3.00
26185;PMS7003;20067;48.764;9.176;2023-01-10T07:16:57;9.00;9.00;5.00
26185;PMS7003;20067;48.764;9.176;2023-01-10T07:19:23;9.00;8.00;4.50
26185;PMS7003;20067;48.764;9.176;2023-01-10T07:21:48;7.75;7.75;2.50
26185;PMS7003;20067;48.764;9.176;2023-01-10T07:24:14;9.25;9.00;3.00
26185;PMS7003;20067;48.764;9.176;2023-01-10T07:26:40;12.00;9.50;6.00
26185;PMS7003;20067;48.764;9.176;2023-01-10T07:29:05;8.25;8.25;3.00
26185;PMS7003;20067;48.764;9.176;2023-01-10T07:31:31;7.25;7.25;3.00
26185;PMS7003;20067;48.764;9.176;2023-01-10T07:33:57;9.25;7.00;2.50
26185;PMS7003;20067;48.764;9.176;2023-01-10T07:36:22;6.00;6.00;1.00
26185;PMS7003;20067;48.764;9.176;2023-01-10T07:38:48;9.25;7.00;2.00
26185;PMS7003;20067;48.764;9.176;2023-01-10T07:41:13;13.50;13.50;5.00
26185;PMS7003;20067;48.764;9.176;2023-01-10T07:43:39;10.00;8.75;1.00
26185;PMS7003;20067;48.764;9.176;2023-01-10T07:46:06;11.75;11.75;3.50
26185;PMS7003;20067;48.764;9.176;2023-01-10T07:48:36;12.50;11.50;2.50
26185;PMS7003;20067;48.764;9.176;2023-01-10T07:51:03;13.00;13.00;3.00
26185;PMS7003;20067;48.764;9.176;2023-01-10T07:53:29;14.00;11.50;3.00
26185;PMS7003;20067;48.764;9.176;2023-01-10T07:56:01;16.00;16.00;4.50
26185;PMS7003;20067;48.764;9.176;2023-01-10T07:58:28;11.00;11.00;3.00
26185;PMS7003;20067;48.764;9.176;2023-01-10T08:00:57;14.00;13.50;1.00
26185;PMS7003;20067;48.764;9.176;2023-01-10T08:03:28;11.00;11.00;3.00
26185;PMS7003;20067;48.764;9.176;2023-01-10T08:05:57;13.00;11.50;1.50
26185;PMS7003;20067;48.764;9.176;2023-01-10T08:08:28;9.50;8.50;1.00
26185;PMS7003;20067;48.764;9.176;2023-01-10T08:10:54;11.00;11.00;3.00
26185;PMS7003;20067;48.764;9.176;2023-01-10T08:13:21;10.00;10.00;1.00
26185;PMS7003;20067;48.764;9.176;2023-01-10T08:15:47;12.00;12.00;3.00
26185;PMS7003;20067;48.764;9.176;2023-01-10T08:18:15;8.00;7.50;0.25
26185;PMS7003;20067;48.764;9.176;2023-01-10T08:20:41;10.25;10.25;2.00
26185;PMS7003;20067;48.764;9.176;2023-01-10T08:23:07;11.00;10.75;3.00
26185;PMS7003;20067;48.764;9.176;2023-01-10T08:25:32;7.00;7.00;1.00
26185;PMS7003;20067;48.764;9.176;2023-01-10T08:27:58;9.25;9.25;4.50
26185;PMS7003;20067;48.764;9.176;2023-01-10T08:30:23;8.75;8.75;5.00
26185;PMS7003;20067;48.764;9.176;2023-01-10T08:32:49;7.00;7.00;1.50
26185;PMS7003;20067;48.764;9.176;2023-01-10T08:35:16;7.75;7.75;3.00
26185;PMS7003;20067;48.764;9.176;2023-01-10T08:37:42;9.50;9.50;3.00
26185;PMS7003;20067;48.764;9.176;2023-01-10T08:40:08;7.00;7.00;1.00
26185;PMS7003;20067;48.764;9.176;2023-01-10T08:42:34;7.50;7.00;1.00
26185;PMS7003;20067;48.764;9.176;2023-01-10T08:44:59;10.00;7.00;1.00
26185;PMS7003;20067;48.764;9.176;2023-01-10T08:47:25;11.00;8.50;2.50
26185;PMS7003;20067;48.764;9.176;2023-01-10T08:49:52;9.00;9.00;3.00
26185;PMS7003;20067;48.764;9.176;2023-01-10T08:52:18;7.00;7.00;1.00
26185;PMS7003;20067;48.764;9.176;2023-01-10T08:54:43;6.00;6.00;1.00
26185;PMS7003;20067;48.764;9.176;2023-01-10T08:57:09;9.00;7.50;3.00
26185;PMS7003;20067;48.764;9.176;2023-01-10T08:59:34;13.00;9.75;5.00
26185;PMS7003;20067;48.764;9.176;2023-01-10T09:02:00;9.00;7.50;3.00
26185;PMS7003;20067;48.764;9.176;2023-01-10T09:04:26;7.00;7.00;1.00
26185;PMS7003;20067;48.764;9.176;2023-01-10T09:06:52;12.00;10.00;5.00
26185;PMS7003;20067;48.764;9.176;2023-01-10T09:09:18;8.25;8.00;3.50
26185;PMS7003;20067;48.764;9.176;2023-01-10T09:11:44;12.50;12.50;7.00
26185;PMS7003;20067;48.764;9.176;2023-01-10T09:14:10;8.00;8.00;3.00
26185;PMS7003;20067;48.764;9.176;2023-01-10T09:16:36;11.00;10.00;5.00
26185;PMS7003;20067;48.764;9.176;2023-01-10T09:19:01;7.50;7.50;3.00
26185;PMS7003;20067;48.764;9.176;2023-01-10T09:21:27;9.25;9.25;3.00
26185;PMS7003;20067;48.764;9.176;2023-01-10T09:23:53;10.00;10.00;5.00
26185;PMS7003;20067;48.764;9.176;2023-01-10T09:26:18;11.00;10.00;5.00
26185;PMS7003;20067;48.764;9.176;2023-01-10T09:28:44;9.75;9.75;4.50
26185;PMS7003;20067;48.764;9.176;2023-01-10T09:31:10;14.00;10.00;7.00
26185;PMS7003;20067;48.764;9.176;2023-01-10T09:33:37;10.75;10.75;7.00
26185;PMS7003;20067;48.764;9.176;2023-01-10T09:36:05;10.25;10.25;5.00
26185;PMS7003;20067;48.764;9.176;2023-01-10T09:38:31;12.00;12.00;7.00
26185;PMS7003;20067;48.764;9.176;2023-01-10T09:43:52;10.00;10.00;6.00
26185;PMS7003;20067;48.764;9.176;2023-01-10T09:46:42;16.50;16.00;9.00
26185;PMS7003;20067;48.764;9.176;2023-01-10T09:52:25;9.25;9.25;3.50
26185;PMS7003;20067;48.764;9.176;2023-01-10T09:54:57;8.75;8.75;3.50
26185;PMS7003;20067;48.764;9.176;2023-01-10T09:57:31;14.00;12.00;7.00
26185;PMS7003;20067;48.764;9.176;2023-01-10T09:59:57;10.00;10.00;5.00
26185;PMS7003;20067;48.764;9.176;2023-01-10T10:02:26;8.50;8.50;3.00
26185;PMS7003;20067;48.764;9.176;2023-01-10T10:07:25;10.00;9.00;4.00
26185;PMS7003;20067;48.764;9.176;2023-01-10T10:09:50;7.75;7.75;3.00
26185;PMS7003;20067;48.764;9.176;2023-01-10T10:15:15;12.75;12.00;5.75
26185;PMS7003;20067;48.764;9.176;2023-01-10T10:20:57;12.00;9.50;3.50
26185;PMS7003;20067;48.764;9.176;2023-01-10T10:23:34;10.00;10.00;4.00
26185;PMS7003;20067;48.764;9.176;2023-01-10T10:26:37;11.50;8.25;3.50
26185;PMS7003;20067;48.764;9.176;2023-01-10T10:34:48;8.00;8.00;3.00
26185;PMS7003;20067;48.764;9.176;2023-01-10T10:42:51;7.00;7.00;2.00
26185;PMS7003;20067;48.764;9.176;2023-01-10T10:45:19;10.50;10.00;5.00
26185;PMS7003;20067;48.764;9.176;2023-01-10T10:48:11;10.00;10.00;3.50
26185;PMS7003;20067;48.764;9.176;2023-01-10T10:50:52;12.50;10.00;4.00
26185;PMS7003;20067;48.764;9.176;2023-01-10T10:53:19;8.00;8.00;1.50
26185;PMS7003;20067;48.764;9.176;2023-01-10T10:55:45;9.50;9.50;3.00
26185;PMS7003;20067;48.764;9.176;2023-01-10T10:58:11;9.50;8.00;3.00
26185;PMS7003;20067;48.764;9.176;2023-01-10T11:00:39;8.00;8.00;3.50
26185;PMS7003;20067;48.764;9.176;2023-01-10T11:03:15;7.00;7.00;3.00
26185;PMS7003;20067;48.764;9.176;2023-01-10T11:05:45;9.50;7.75;2.50
26185;PMS7003;20067;48.764;9.176;2023-01-10T11:08:12;5.75;5.75;1.00
26185;PMS7003;20067;48.764;9.176;2023-01-10T11:10:48;6.75;6.75;3.00
26185;PMS7003;20067;48.764;9.176;2023-01-10T11:22:01;12.00;8.25;1.00
26185;PMS7003;20067;48.764;9.176;2023-01-10T11:24:34;7.00;7.00;1.00
26185;PMS7003;20067;48.764;9.176;2023-01-10T11:27:25;7.25;6.25;1.00
26185;PMS7003;20067;48.764;9.176;2023-01-10T11:32:26;5.75;5.75;1.00
26185;PMS7003;20067;48.764;9.176;2023-01-10T11:34:58;7.00;7.00;1.00
26185;PMS7003;20067;48.764;9.176;2023-01-10T11:37:28;10.00;8.00;3.00
26185;PMS7003;20067;48.764;9.176;2023-01-10T11:42:41;6.00;5.00;1.00
26185;PMS7003;20067;48.764;9.176;2023-01-10T11:47:42;8.50;8.00;1.00
26185;PMS7003;20067;48.764;9.176;2023-01-10T11:50:18;9.50;9.50;3.00
26185;PMS7003;20067;48.764;9.176;2023-01-10T11:52:49;7.00;7.00;1.00
26185;PMS7003;20067;48.764;9.176;2023-01-10T11:55:22;8.00;8.00;1.00
26185;PMS7003;20067;48.764;9.176;2023-01-10T11:58:01;10.00;8.75;2.00
26185;PMS7003;20067;48.764;9.176;2023-01-10T12:00:37;8.00;8.00;1.00
26185;PMS7003;20067;48.764;9.176;2023-01-10T12:03:17;6.75;6.75;1.00
26185;PMS7003;20067;48.764;9.176;2023-01-10T12:05:48;8.50;8.50;0.75
26185;PMS7003;20067;48.764;9.176;2023-01-10T12:08:23;9.25;8.75;3.00
26185;PMS7003;20067;48.764;9.176;2023-01-10T12:10:57;8.00;8.00;1.00
26185;PMS7003;20067;48.764;9.176;2023-01-10T12:13:26;7.25;7.25;1.50
26185;PMS7003;20067;48.764;9.176;2023-01-10T12:16:13;12.50;6.00;1.00
26185;PMS7003;20067;48.764;9.176;2023-01-10T12:18:54;9.50;6.75;1.00
26185;PMS7003;20067;48.764;9.176;2023-01-10T12:21:29;5.75;5.50;1.00
26185;PMS7003;20067;48.764;9.176;2023-01-10T12:24:03;6.00;6.00;1.00
26185;PMS7003;20067;48.764;9.176;2023-01-10T12:26:42;5.00;5.00;1.00
26185;PMS7003;20067;48.764;9.176;2023-01-10T12:29:15;6.50;6.00;1.00
26185;PMS7003;20067;48.764;9.176;2023-01-10T12:32:03;5.25;5.00;0.50
26185;PMS7003;20067;48.764;9.176;2023-01-10T12:34:41;5.00;5.00;1.00
26185;PMS7003;20067;48.764;9.176;2023-01-10T12:39:52;6.00;6.00;1.00
26185;PMS7003;20067;48.764;9.176;2023-01-10T12:42:35;3.50;3.50;0.25
26185;PMS7003;20067;48.764;9.176;2023-01-10T12:45:41;5.00;5.00;1.00
26185;PMS7003;20067;48.764;9.176;2023-01-10T12:48:16;5.00;5.00;1.00
26185;PMS7003;20067;48.764;9.176;2023-01-10T12:51:04;6.00;5.75;1.00
26185;PMS7003;20067;48.764;9.176;2023-01-10T12:53:40;5.75;5.75;1.00
26185;PMS7003;20067;48.764;9.176;2023-01-10T12:56:19;7.00;5.50;1.00
26185;PMS7003;20067;48.764;9.176;2023-01-10T12:58:49;5.00;5.00;1.00
26185;PMS7003;20067;48.764;9.176;2023-01-10T13:01:21;5.75;5.75;1.00
26185;PMS7003;20067;48.764;9.176;2023-01-10T13:04:00;6.00;5.00;1.00
26185;PMS7003;20067;48.764;9.176;2023-01-10T13:06:30;5.00;5.00;1.00
26185;PMS7003;20067;48.764;9.176;2023-01-10T13:08:59;5.00;5.00;0.75
26185;PMS7003;20067;48.764;9.176;2023-01-10T13:11:33;6.00;5.00;1.00
26185;PMS7003;20067;48.764;9.176;2023-01-10T13:14:04;5.00;5.00;0.00
26185;PMS7003;20067;48.764;9.176;2023-01-10T13:16:35;5.00;5.00;0.75
26185;PMS7003;20067;48.764;9.176;2023-01-10T13:21:39;5.00;5.00;0.00
26185;PMS7003;20067;48.764;9.176;2023-01-10T13:24:15;5.75;5.50;1.00
26185;PMS7003;20067;48.764;9.176;2023-01-10T13:26:56;6.00;6.00;3.00
26185;PMS7003;20067;48.764;9.176;2023-01-10T13:29:41;5.00;5.00;0.00
26185;PMS7003;20067;48.764;9.176;2023-01-10T13:32:26;4.50;3.00;0.00
26185;PMS7003;20067;48.764;9.176;2023-01-10T13:34:54;6.50;5.00;1.00
26185;PMS7003;20067;48.764;9.176;2023-01-10T13:37:41;5.00;5.00;0.00
26185;PMS7003;20067;48.764;9.176;2023-01-10T13:40:16;5.00;5.00;1.00
26185;PMS7003;20067;48.764;9.176;2023-01-10T13:42:45;6.00;6.00;1.00
26185;PMS7003;20067;48.764;9.176;2023-01-10T13:48:42;5.00;5.00;1.00
26185;PMS7003;20067;48.764;9.176;2023-01-10T13:51:30;5.00;5.00;0.50
26185;PMS7003;20067;48.764;9.176;2023-01-10T13:54:00;5.00;5.00;1.00
26185;PMS7003;20067;48.764;9.176;2023-01-10T13:56:29;4.50;4.50;0.50
26185;PMS7003;20067;48.764;9.176;2023-01-10T13:58:59;6.00;6.00;1.00
26185;PMS7003;20067;48.764;9.176;2023-01-10T14:01:48;8.00;6.00;1.00
26185;PMS7003;20067;48.764;9.176;2023-01-10T14:04:38;5.00;5.00;1.00
26185;PMS7003;20067;48.764;9.176;2023-01-10T14:07:30;4.50;4.50;0.00
26185;PMS7003;20067;48.764;9.176;2023-01-10T14:10:08;7.00;6.00;1.00
26185;PMS7003;20067;48.764;9.176;2023-01-10T14:12:48;5.25;5.25;1.00
26185;PMS7003;20067;48.764;9.176;2023-01-10T14:15:37;5.75;5.75;0.50
26185;PMS7003;20067;48.764;9.176;2023-01-10T14:18:18;7.00;6.00;1.00
26185;PMS7003;20067;48.764;9.176;2023-01-10T14:20:58;8.00;6.00;1.00
26185;PMS7003;20067;48.764;9.176;2023-01-10T14:23:27;5.00;5.00;1.00
26185;PMS7003;20067;48.764;9.176;2023-01-10T14:26:01;4.00;4.00;0.25
26185;PMS7003;20067;48.764;9.176;2023-01-10T14:28:30;6.00;6.00;3.00
26185;PMS7003;20067;48.764;9.176;2023-01-10T14:31:02;5.75;5.75;2.00
26185;PMS7003;20067;48.764;9.176;2023-01-10T14:33:42;5.00;5.00;1.00
26185;PMS7003;20067;48.764;9.176;2023-01-10T14:36:13;5.00;5.00;1.00
26185;PMS7003;20067;48.764;9.176;2023-01-10T14:38:42;8.00;7.00;1.50
26185;PMS7003;20067;48.764;9.176;2023-01-10T14:41:11;5.00;5.00;1.00
26185;PMS7003;20067;48.764;9.176;2023-01-10T14:49:34;7.50;7.50;1.00
26185;PMS7003;20067;48.764;9.176;2023-01-10T14:54:40;8.00;7.00;0.75
26185;PMS7003;20067;48.764;9.176;2023-01-10T14:57:14;7.75;7.75;0.00
26185;PMS7003;20067;48.764;9.176;2023-01-10T14:59:44;8.00;8.00;0.00
26185;PMS7003;20067;48.764;9.176;2023-01-10T15:02:20;7.50;7.50;0.75
26185;PMS7003;20067;48.764;9.176;2023-01-10T15:04:58;10.00;10.00;1.00
26185;PMS7003;20067;48.764;9.176;2023-01-10T15:07:26;6.00;6.00;0.50
26185;PMS7003;20067;48.764;9.176;2023-01-10T15:09:53;6.00;6.00;0.00
26185;PMS7003;20067;48.764;9.176;2023-01-10T15:12:26;7.00;7.00;1.00
26185;PMS7003;20067;48.764;9.176;2023-01-10T15:15:03;5.50;5.50;0.00
26185;PMS7003;20067;48.764;9.176;2023-01-10T15:17:32;6.00;6.00;0.50
26185;PMS7003;20067;48.764;9.176;2023-01-10T15:19:59;7.25;7.25;0.50
26185;PMS7003;20067;48.764;9.176;2023-01-10T15:25:01;13.00;13.00;3.00
26185;PMS7003;20067;48.764;9.176;2023-01-10T15:27:50;8.00;8.00;3.00
26185;PMS7003;20067;48.764;9.176;2023-01-10T15:30:20;5.00;5.00;1.00
26185;PMS7003;20067;48.764;9.176;2023-01-10T15:32:56;8.00;8.00;3.00
26185;PMS7003;20067;48.764;9.176;2023-01-10T15:35:27;7.25;7.25;3.00
26185;PMS7003;20067;48.764;9.176;2023-01-10T15:37:55;8.00;8.00;3.00
26185;PMS7003;20067;48.764;9.176;2023-01-10T15:40:33;8.50;6.25;2.00
26185;PMS7003;20067;48.764;9.176;2023-01-10T15:43:11;6.00;6.00;1.00
26185;PMS7003;20067;48.764;9.176;2023-01-10T15:45:41;8.00;7.00;3.00
26185;PMS7003;20067;48.764;9.176;2023-01-10T15:48:52;5.00;5.00;1.00
26185;PMS7003;20067;48.764;9.176;2023-01-10T15:56:15;8.00;8.00;3.00
26185;PMS7003;20067;48.764;9.176;2023-01-10T15:58:45;7.75;7.75;2.00
26185;PMS7003;20067;48.764;9.176;2023-01-10T16:01:14;7.75;6.00;1.00
26185;PMS7003;20067;48.764;9.176;2023-01-10T16:03:44;5.50;5.50;1.00
26185;PMS7003;20067;48.764;9.176;2023-01-10T16:08:54;7.75;7.75;2.50
26185;PMS7003;20067;48.764;9.176;2023-01-10T16:11:23;7.50;7.00;1.50
26185;PMS7003;20067;48.764;9.176;2023-01-10T16:14:11;6.25;6.25;1.00
26185;PMS7003;20067;48.764;9.176;2023-01-10T16:16:37;10.00;9.50;3.00
26185;PMS7003;20067;48.764;9.176;2023-01-10T16:19:03;7.00;7.00;1.00
26185;PMS7003;20067;48.764;9.176;2023-01-10T16:21:31;7.00;7.00;3.00
26185;PMS7003;20067;48.764;9.176;2023-01-10T16:24:02;7.25;7.00;1.50
26185;PMS7003;20067;48.764;9.176;2023-01-10T16:26:29;5.50;5.00;1.00
26185;PMS7003;20067;48.764;9.176;2023-01-10T16:28:54;10.00;8.75;4.00